Time;durP1;ratioP1;P1;durP2;ratioP2;P2;SDS_P1;SDS_P2;PMS_P1;PMS_P2;Temp;Humidity;BMP_temperature;BMP_pressure;BME280_temperature;BME280_humidity;BME280_pressure;Samples;Min_cycle;Max_cycle;Signal;HPM_P1;HPM_P2
2022/03/02 00:02:21;;;;;;;21.48;11.65;;;;;;;5.96;51.16;102579.06;5007689;28;20051;-74
2022/03/02 00:04:48;;;;;;;19.58;10.98;;;;;;;5.98;51.58;102571.22;4998287;28;20517;-74
2022/03/02 00:07:15;;;;;;;19.15;10.93;;;;;;;5.98;51.46;102572.13;5009131;28;20092;-74
2022/03/02 00:09:43;;;;;;;22.88;11.20;;;;;;;5.99;51.38;102572.97;5007475;28;20426;-74
2022/03/02 00:12:10;;;;;;;18.52;10.88;;;;;;;6.01;51.13;102563.47;5009414;28;20045;-73
2022/03/02 00:14:38;;;;;;;16.35;10.95;;;;;;;6.02;50.96;102566.09;4999288;28;20562;-72
2022/03/02 00:17:05;;;;;;;23.48;12.05;;;;;;;6.02;51.17;102566.09;5006622;28;20559;-72
2022/03/02 00:19:33;;;;;;;20.15;11.43;;;;;;;6.02;50.92;102570.47;5007092;28;20094;-71
2022/03/02 00:22:00;;;;;;;20.10;11.18;;;;;;;5.99;50.97;102562.50;5009514;28;20073;-71
2022/03/02 00:24:27;;;;;;;19.13;11.60;;;;;;;5.96;51.13;102563.34;5008022;28;20664;-71
2022/03/02 00:26:54;;;;;;;20.42;11.60;;;;;;;5.95;51.18;102566.81;5009345;28;20525;-71
2022/03/02 00:29:21;;;;;;;19.45;11.07;;;;;;;5.96;51.19;102562.44;5021323;28;20042;-70
2022/03/02 00:31:48;;;;;;;19.90;10.98;;;;;;;5.96;51.13;102567.69;5006773;28;20047;-71
2022/03/02 00:34:16;;;;;;;20.98;11.35;;;;;;;5.96;51.04;102571.19;5001688;28;20073;-71
2022/03/02 00:36:43;;;;;;;19.05;11.02;;;;;;;5.95;51.00;102560.72;5007347;28;20038;-71
2022/03/02 00:39:10;;;;;;;21.45;10.95;;;;;;;5.96;50.89;102567.69;5003767;28;20038;-71
2022/03/02 00:41:37;;;;;;;19.88;10.45;;;;;;;5.96;50.94;102567.69;4995362;28;20050;-71
2022/03/02 00:44:04;;;;;;;18.17;10.80;;;;;;;5.96;50.93;102563.34;5001061;28;20047;-69
2022/03/02 00:46:32;;;;;;;21.45;11.13;;;;;;;5.96;50.94;102562.44;5007364;28;20046;-70
2022/03/02 00:49:01;;;;;;;25.63;11.40;;;;;;;5.94;50.25;102558.94;4999975;28;20816;-70
2022/03/02 00:51:29;;;;;;;22.40;11.20;;;;;;;5.91;50.94;102559.75;5007572;28;20046;-70
2022/03/02 00:53:58;;;;;;;18.42;10.63;;;;;;;5.89;50.89;102564.13;5008471;28;20519;-70
2022/03/02 00:56:26;;;;;;;18.88;11.27;;;;;;;5.87;50.88;102550.13;5009254;28;20048;-71
2022/03/02 00:58:53;;;;;;;18.33;10.73;;;;;;;5.84;51.04;102556.19;5001236;28;20046;-72
2022/03/02 01:01:20;;;;;;;19.10;11.38;;;;;;;5.83;51.23;102549.19;5005605;28;20075;-70
2022/03/02 01:03:49;;;;;;;18.73;11.27;;;;;;;5.81;51.38;102556.13;5004084;28;20110;-69
2022/03/02 01:06:17;;;;;;;21.15;10.80;;;;;;;5.79;51.50;102546.50;5006831;28;20050;-69
2022/03/02 01:08:45;;;;;;;19.02;11.07;;;;;;;5.78;51.60;102549.97;5004094;28;20872;-70
2022/03/02 01:11:12;;;;;;;22.05;11.52;;;;;;;5.76;51.45;102542.06;5008321;28;20499;-70
2022/03/02 01:13:39;;;;;;;19.92;11.27;;;;;;;5.75;51.48;102538.56;5007237;28;20069;-70
2022/03/02 01:16:06;;;;;;;17.23;10.77;;;;;;;5.77;51.58;102540.34;5009045;28;20045;-70
2022/03/02 01:18:34;;;;;;;19.45;10.77;;;;;;;5.79;51.47;102533.41;5009596;28;20057;-70
2022/03/02 01:21:01;;;;;;;21.02;10.85;;;;;;;5.79;51.25;102539.50;5009250;28;20140;-70
2022/03/02 01:23:28;;;;;;;21.08;11.00;;;;;;;5.77;51.23;102532.50;5008680;28;20046;-69
2022/03/02 01:25:55;;;;;;;18.88;10.45;;;;;;;5.74;51.37;102531.56;5009779;28;20049;-71
2022/03/02 01:28:22;;;;;;;20.02;11.13;;;;;;;5.72;51.42;102529.78;5009993;28;20537;-70
2022/03/02 01:30:49;;;;;;;18.23;10.82;;;;;;;5.70;51.57;102534.13;5011632;28;20481;-70
2022/03/02 01:33:16;;;;;;;23.60;10.90;;;;;;;5.69;51.40;102530.63;5008215;28;20046;-71
2022/03/02 01:35:43;;;;;;;18.60;10.63;;;;;;;5.69;51.45;102525.41;4999462;28;20789;-71
2022/03/02 01:38:11;;;;;;;21.48;10.88;;;;;;;5.66;51.66;102521.81;5012031;28;20043;-73
2022/03/02 01:40:38;;;;;;;19.10;10.63;;;;;;;5.63;51.55;102525.28;5010424;28;20046;-72
2022/03/02 01:43:05;;;;;;;20.58;11.05;;;;;;;5.63;51.34;102524.41;5010903;28;20097;-72
2022/03/02 01:45:33;;;;;;;19.25;10.32;;;;;;;5.60;51.40;102519.97;5011783;28;20558;-76
2022/03/02 01:48:02;;;;;;;18.30;11.23;;;;;;;5.59;51.49;102513.88;5011735;28;20038;-76
2022/03/02 01:50:31;;;;;;;19.85;10.40;;;;;;;5.58;51.26;102516.47;5008076;28;20050;-76
2022/03/02 01:52:58;;;;;;;17.13;9.98;;;;;;;5.57;51.55;102519.94;5000675;28;20542;-70
2022/03/02 01:55:26;;;;;;;17.85;11.02;;;;;;;5.56;51.78;102512.94;5021229;28;20506;-72
2022/03/02 01:57:55;;;;;;;17.58;10.50;;;;;;;5.54;51.65;102507.69;5010675;28;20057;-73
2022/03/02 02:00:24;;;;;;;19.85;11.30;;;;;;;5.54;51.81;102510.31;5010473;28;20046;-72
2022/03/02 02:02:52;;;;;;;17.00;9.75;;;;;;;5.53;51.72;102505.94;5004799;28;20141;-70
2022/03/02 02:05:20;;;;;;;19.10;10.45;;;;;;;5.53;51.80;102499.81;5011492;28;20043;-70
2022/03/02 02:07:47;;;;;;;19.95;10.38;;;;;;;5.54;51.72;102505.09;5010158;28;20046;-69
2022/03/02 02:10:15;;;;;;;21.92;10.70;;;;;;;5.55;51.61;102505.94;5004543;28;20126;-70
2022/03/02 02:12:43;;;;;;;18.55;9.82;;;;;;;5.55;51.17;102500.72;5005807;28;20053;-71
2022/03/02 02:15:11;;;;;;;17.50;10.45;;;;;;;5.50;51.24;102495.41;5010629;28;20053;-70
2022/03/02 02:17:41;;;;;;;18.60;10.23;;;;;;;5.51;51.38;102501.50;4997917;28;21062;-69
2022/03/02 02:20:10;;;;;;;17.02;9.38;;;;;;;5.50;51.46;102492.78;5010196;28;20046;-70
2022/03/02 02:22:45;;;;;;;21.83;10.55;;;;;;;5.51;51.50;102501.50;4997417;28;20201;-70
2022/03/02 02:25:14;;;;;;;17.80;10.27;;;;;;;5.49;51.76;102496.25;5002154;28;20048;-69
2022/03/02 02:27:47;;;;;;;17.85;10.23;;;;;;;5.52;51.67;102492.81;5009050;28;20042;-69
2022/03/02 02:30:16;;;;;;;20.90;10.35;;;;;;;5.54;51.77;102491.09;5006363;28;20039;-70
2022/03/02 02:32:44;;;;;;;16.65;10.00;;;;;;;5.55;51.55;102487.63;5009520;28;20053;-69
2022/03/02 02:35:12;;;;;;;17.65;10.65;;;;;;;5.56;51.30;102485.03;5011903;28;20043;-69
2022/03/02 02:37:40;;;;;;;20.25;10.35;;;;;;;5.51;51.41;102477.97;5009324;28;20042;-68
2022/03/02 02:40:11;;;;;;;18.92;10.73;;;;;;;5.46;51.63;102471.78;5008190;28;20531;-70
2022/03/02 02:42:41;;;;;;;18.95;10.30;;;;;;;5.39;51.99;102469.03;5006074;28;21045;-70
2022/03/02 02:45:09;;;;;;;19.13;10.48;;;;;;;5.33;52.09;102470.69;4994574;28;20047;-69
2022/03/02 02:47:36;;;;;;;19.35;10.43;;;;;;;5.27;52.40;102468.84;4995783;28;20055;-68
2022/03/02 02:50:24;;;;;;;18.35;10.18;;;;;;;5.21;52.53;102460.88;5009129;28;20031;-69
2022/03/02 02:52:54;;;;;;;17.38;10.27;;;;;;;5.13;52.55;102463.38;5010485;28;20507;-69
2022/03/02 02:55:27;;;;;;;19.85;11.07;;;;;;;5.08;52.48;102462.41;5009916;28;20075;-68
2022/03/02 02:57:57;;;;;;;18.98;10.82;;;;;;;5.02;52.69;102465.78;5010146;28;20082;-69
2022/03/02 03:00:30;;;;;;;18.83;10.68;;;;;;;4.94;52.95;102451.69;5009966;28;20519;-69
2022/03/02 03:03:00;;;;;;;19.27;10.63;;;;;;;4.89;52.77;102461.16;5019053;28;20043;-69
2022/03/02 03:05:31;;;;;;;19.23;10.48;;;;;;;4.85;52.94;102456.75;5007960;28;20076;-70
2022/03/02 03:08:13;;;;;;;17.83;10.40;;;;;;;4.83;52.87;102456.72;5009068;28;20153;-69
2022/03/02 03:10:42;;;;;;;18.35;10.23;;;;;;;4.80;53.10;102456.66;5010064;28;20038;-72
2022/03/02 03:13:09;;;;;;;20.63;10.85;;;;;;;4.78;53.16;102448.75;5010459;28;20098;-74
2022/03/02 03:15:37;;;;;;;20.48;10.25;;;;;;;4.77;52.91;102451.34;5024719;28;20050;-74
2022/03/02 03:18:06;;;;;;;20.63;10.82;;;;;;;4.75;52.92;102447.81;5009408;28;21277;-74
2022/03/02 03:20:35;;;;;;;20.67;10.68;;;;;;;4.70;53.13;102458.19;5009125;28;20053;-74
2022/03/02 03:23:04;;;;;;;19.05;10.07;;;;;;;4.66;53.39;102451.16;5008943;28;20054;-74
2022/03/02 03:25:32;;;;;;;20.08;10.52;;;;;;;4.65;53.35;102454.63;5010439;28;20905;-75
2022/03/02 03:27:59;;;;;;;18.58;10.20;;;;;;;4.68;53.41;102461.63;5008902;28;20086;-70
2022/03/02 03:30:28;;;;;;;17.80;10.82;;;;;;;4.69;53.54;102463.41;5007580;28;20097;-71
2022/03/02 03:32:56;;;;;;;18.48;10.70;;;;;;;4.69;53.48;102460.78;5009316;28;20042;-70
2022/03/02 03:35:27;;;;;;;19.92;10.38;;;;;;;4.70;53.54;102463.41;5010606;28;20050;-71
2022/03/02 03:37:55;;;;;;;19.60;10.43;;;;;;;4.68;53.38;102457.28;5008952;28;20047;-71
2022/03/02 03:40:23;;;;;;;16.30;9.77;;;;;;;4.66;53.53;102459.88;5010681;28;20089;-71
2022/03/02 03:42:52;;;;;;;15.73;9.88;;;;;;;4.61;53.53;102451.06;5008168;28;20046;-71
2022/03/02 03:45:20;;;;;;;22.30;10.80;;;;;;;4.58;53.58;102460.56;5005110;28;20822;-70
2022/03/02 03:47:48;;;;;;;20.35;10.23;;;;;;;4.49;53.72;102459.50;5007525;28;20043;-69
2022/03/02 03:50:15;;;;;;;18.23;10.00;;;;;;;4.46;53.65;102456.84;5008291;28;20045;-71
2022/03/02 03:52:43;;;;;;;16.27;10.02;;;;;;;4.43;53.59;102454.16;5009002;28;20042;-70
2022/03/02 03:55:12;;;;;;;19.38;10.07;;;;;;;4.41;53.62;102447.16;5000096;28;20051;-70
2022/03/02 03:57:40;;;;;;;18.92;10.25;;;;;;;4.35;53.85;102451.38;5006157;28;20096;-70
2022/03/02 04:00:13;;;;;;;20.23;10.45;;;;;;;4.27;54.12;102447.75;5009545;28;20101;-68
2022/03/02 04:02:41;;;;;;;18.38;10.00;;;;;;;4.18;54.39;102452.75;5007883;28;20097;-68
2022/03/02 04:05:09;;;;;;;17.33;9.93;;;;;;;4.12;54.63;102447.41;4996963;28;20038;-68
2022/03/02 04:07:41;;;;;;;17.30;10.25;;;;;;;4.03;55.06;102446.34;5001039;28;20069;-67
2022/03/02 04:10:09;;;;;;;16.77;10.43;;;;;;;3.95;55.30;102437.47;5009176;28;20506;-70
2022/03/02 04:12:36;;;;;;;17.55;9.75;;;;;;;3.86;55.50;102434.66;5005491;28;20478;-71
2022/03/02 04:15:05;;;;;;;18.70;10.80;;;;;;;3.80;55.78;102431.91;5009540;28;20038;-72
2022/03/02 04:17:32;;;;;;;16.15;10.23;;;;;;;3.78;55.80;102433.59;5008682;28;20438;-71
2022/03/02 04:19:59;;;;;;;18.30;10.32;;;;;;;3.77;56.15;102434.44;5007876;28;20093;-72
2022/03/02 04:22:26;;;;;;;19.52;10.60;;;;;;;3.74;55.85;102427.41;5010278;28;20049;-71
2022/03/02 04:24:53;;;;;;;19.90;10.85;;;;;;;3.71;55.77;102425.59;4998135;28;20045;-71
2022/03/02 04:27:20;;;;;;;19.42;9.48;;;;;;;3.71;56.06;102420.38;5007636;28;20046;-70
2022/03/02 04:29:47;;;;;;;18.13;10.70;;;;;;;3.73;56.05;102418.69;5009016;28;20070;-71
2022/03/02 04:32:14;;;;;;;18.27;10.70;;;;;;;3.70;56.08;102418.66;5008434;28;20101;-70
2022/03/02 04:34:41;;;;;;;18.35;10.18;;;;;;;3.67;56.22;102422.88;5008523;28;20263;-70
2022/03/02 04:37:09;;;;;;;17.73;9.90;;;;;;;3.62;56.52;102411.47;5006570;28;20043;-70
2022/03/02 04:39:36;;;;;;;19.63;10.93;;;;;;;3.61;56.53;102418.44;5005535;28;20130;-70
2022/03/02 04:42:04;;;;;;;19.00;9.93;;;;;;;3.64;56.42;102413.28;5005604;28;20372;-70
2022/03/02 04:44:31;;;;;;;18.63;10.18;;;;;;;3.68;56.58;102409.00;5008852;28;20046;-69
2022/03/02 04:46:58;;;;;;;20.13;10.60;;;;;;;3.75;56.72;102407.41;5007580;28;20796;-69
2022/03/02 04:49:25;;;;;;;17.15;10.00;;;;;;;3.77;56.51;102405.72;5006118;28;20054;-70
2022/03/02 04:51:52;;;;;;;19.73;10.30;;;;;;;3.76;56.48;102402.25;5008155;28;20058;-70
2022/03/02 04:57:07;;;;;;;19.45;10.55;;;;;;;3.54;56.96;102403.47;5007741;28;20126;-69
2022/03/02 04:59:34;;;;;;;17.95;10.50;;;;;;;3.44;57.28;102412.81;5008821;28;20489;-70
2022/03/02 05:02:01;;;;;;;17.73;10.23;;;;;;;3.34;57.71;102408.22;4999684;28;20054;-69
2022/03/02 05:04:28;;;;;;;23.67;11.38;;;;;;;3.22;57.97;102404.44;5011882;28;20042;-71
2022/03/02 05:06:55;;;;;;;18.45;10.52;;;;;;;3.13;58.11;102405.91;5010506;28;20062;-72
2022/03/02 05:09:22;;;;;;;19.08;10.60;;;;;;;3.04;58.16;102394.44;5011346;28;20082;-69
2022/03/02 05:11:50;;;;;;;18.52;10.10;;;;;;;3.03;58.40;102399.59;5011313;28;20100;-73
2022/03/02 05:14:17;;;;;;;22.13;11.13;;;;;;;3.01;58.42;102394.34;5010101;28;20050;-71
2022/03/02 05:16:44;;;;;;;18.75;10.95;;;;;;;3.03;58.60;102395.25;5011630;28;20089;-71
2022/03/02 05:19:11;;;;;;;24.67;10.45;;;;;;;3.04;58.47;102391.81;5010864;28;20042;-71
2022/03/02 05:21:38;;;;;;;18.13;10.43;;;;;;;3.07;58.42;102397.13;5011496;28;20046;-70
2022/03/02 05:24:05;;;;;;;18.30;10.15;;;;;;;3.07;58.25;102389.31;5011505;28;20593;-70
2022/03/02 05:26:33;;;;;;;18.60;10.75;;;;;;;3.06;58.01;102397.06;5011639;28;20049;-72
2022/03/02 05:29:00;;;;;;;21.02;10.98;;;;;;;3.01;58.07;102394.34;5011536;28;20042;-72
2022/03/02 05:31:27;;;;;;;18.73;10.82;;;;;;;2.92;58.06;102391.50;5009273;28;20049;-70
2022/03/02 05:33:54;;;;;;;21.80;10.82;;;;;;;2.81;58.29;102396.44;5010034;28;20438;-70
2022/03/02 05:36:25;;;;;;;22.95;10.55;;;;;;;2.69;58.50;102398.69;4999389;28;20546;-73
2022/03/02 05:38:52;;;;;;;18.77;10.82;;;;;;;2.57;58.83;102394.03;5001199;28;20050;-71
2022/03/02 05:41:21;;;;;;;21.75;10.40;;;;;;;2.49;59.09;102391.22;5000094;28;20043;-72
2022/03/02 05:43:48;;;;;;;22.05;10.80;;;;;;;2.46;59.33;102394.63;5005451;28;20042;-72
2022/03/02 05:46:15;;;;;;;18.80;10.85;;;;;;;2.42;59.82;102390.16;5007164;28;20051;-72
2022/03/02 05:48:42;;;;;;;20.42;10.15;;;;;;;2.37;60.11;102391.75;5000037;28;20502;-72
2022/03/02 05:51:09;;;;;;;19.70;10.43;;;;;;;2.32;60.39;102393.34;5006353;28;20058;-72
2022/03/02 05:53:36;;;;;;;21.02;11.63;;;;;;;2.27;60.62;102393.19;5009903;28;20814;-74
2022/03/02 05:56:06;;;;;;;22.45;11.27;;;;;;;2.23;60.78;102385.25;5003553;28;20043;-72
2022/03/02 05:58:33;;;;;;;20.85;10.82;;;;;;;2.16;60.90;102381.59;5001868;28;20057;-71
2022/03/02 06:01:00;;;;;;;20.10;11.30;;;;;;;2.10;61.19;102397.03;5008398;28;20070;-71
2022/03/02 06:03:29;;;;;;;23.40;11.63;;;;;;;2.03;61.58;102390.75;5008712;28;20073;-72
2022/03/02 06:05:56;;;;;;;20.05;10.60;;;;;;;1.97;61.88;102386.25;5009398;28;20046;-71
2022/03/02 06:08:24;;;;;;;21.05;10.77;;;;;;;1.90;61.88;102386.03;5008690;28;20090;-71
2022/03/02 06:10:51;;;;;;;25.25;11.50;;;;;;;1.84;61.92;102391.91;5009216;28;20050;-70
2022/03/02 06:13:18;;;;;;;23.02;11.50;;;;;;;1.78;61.84;102397.81;5006339;28;20046;-71
2022/03/02 06:15:46;;;;;;;21.70;10.80;;;;;;;1.76;62.70;102404.72;5010850;28;20054;-71
2022/03/02 06:18:13;;;;;;;21.02;10.88;;;;;;;1.82;64.08;102404.88;5011201;28;20049;-71
2022/03/02 06:20:42;;;;;;;24.33;11.15;;;;;;;2.03;63.84;102405.50;5009355;28;20054;-71
2022/03/02 06:23:10;;;;;;;19.75;10.82;;;;;;;2.09;62.65;102403.94;5010328;28;20050;-71
2022/03/02 06:25:37;;;;;;;21.17;10.95;;;;;;;2.07;62.42;102397.84;5002212;28;20046;-71
2022/03/02 06:28:04;;;;;;;19.58;10.80;;;;;;;2.04;62.03;102404.63;5010919;28;20054;-71
2022/03/02 06:30:32;;;;;;;22.80;11.13;;;;;;;1.97;61.98;102414.88;5010191;28;20050;-70
2022/03/02 06:32:59;;;;;;;22.20;11.07;;;;;;;1.93;62.42;102406.94;5011091;28;20046;-71
2022/03/02 06:35:26;;;;;;;23.95;11.73;;;;;;;1.92;62.46;102411.25;5011236;28;20038;-72
2022/03/02 06:37:54;;;;;;;22.85;11.15;;;;;;;1.97;62.69;102411.41;5011177;28;20042;-71
2022/03/02 06:40:21;;;;;;;22.25;11.30;;;;;;;2.03;62.33;102405.50;5008252;28;20134;-71
2022/03/02 06:43:14;;;;;;;21.27;10.68;;;;;;;2.11;62.27;102415.28;5009658;28;20090;-70
2022/03/02 06:45:47;;;;;;;20.85;11.00;;;;;;;2.20;62.18;102404.28;5007443;28;20359;-72
2022/03/02 06:48:26;;;;;;;28.00;11.65;;;;;;;2.30;61.91;102403.72;5003893;28;20046;-71
2022/03/02 06:50:58;;;;;;;20.40;11.07;;;;;;;2.40;61.69;102412.66;5008448;28;20125;-70
2022/03/02 06:53:35;;;;;;;21.15;10.45;;;;;;;2.46;61.10;102410.25;5008349;28;20097;-70
2022/03/02 06:56:08;;;;;;;22.15;10.85;;;;;;;2.49;60.63;102412.03;5005282;28;20042;-70
2022/03/02 06:59:02;;;;;;;21.52;11.40;;;;;;;2.56;60.23;102418.31;4996896;28;20553;-70
2022/03/02 07:01:32;;;;;;;20.85;10.95;;;;;;;2.59;60.30;102428.81;5002192;28;20059;-70
2022/03/02 07:04:01;;;;;;;23.00;11.57;;;;;;;2.61;60.22;102416.69;5007303;28;20046;-71
2022/03/02 07:06:29;;;;;;;20.20;11.45;;;;;;;2.69;60.17;102416.94;5002268;28;20043;-70
2022/03/02 07:08:56;;;;;;;21.48;11.13;;;;;;;2.75;60.00;102417.09;5005474;28;20353;-70
2022/03/02 07:11:25;;;;;;;23.60;12.00;;;;;;;2.84;59.88;102414.75;5006523;28;20050;-70
2022/03/02 07:13:58;;;;;;;23.13;11.55;;;;;;;2.93;59.72;102406.28;5006953;28;20042;-69
2022/03/02 07:16:26;;;;;;;24.13;11.90;;;;;;;3.00;59.58;102416.03;5004548;28;20130;-69
2022/03/02 07:18:53;;;;;;;21.80;11.60;;;;;;;3.05;59.42;102410.97;5007064;28;20093;-70
2022/03/02 07:21:28;;;;;;;22.05;11.57;;;;;;;3.09;59.24;102411.06;5004303;28;20042;-69
2022/03/02 07:24:14;;;;;;;21.77;12.45;;;;;;;3.21;59.06;102417.41;5006675;28;20089;-69
2022/03/02 07:26:45;;;;;;;18.45;11.27;;;;;;;3.29;58.83;102418.53;5004230;28;20086;-69
2022/03/02 07:29:15;;;;;;;24.73;12.07;;;;;;;3.38;58.50;102421.34;5005571;28;20058;-69
2022/03/02 07:31:43;;;;;;;22.23;11.93;;;;;;;3.50;58.09;102418.16;5006465;28;20050;-70
2022/03/02 07:34:15;;;;;;;23.35;12.07;;;;;;;3.61;58.00;102415.81;5005506;28;20042;-70
2022/03/02 07:36:42;;;;;;;23.25;11.38;;;;;;;3.73;57.52;102417.84;5004131;28;20046;-70
2022/03/02 07:39:11;;;;;;;22.27;11.45;;;;;;;3.83;57.31;102419.81;5006149;28;20047;-70
2022/03/02 07:41:38;;;;;;;19.25;12.05;;;;;;;3.93;56.84;102425.22;5005856;28;20049;-70
2022/03/02 07:44:05;;;;;;;17.13;10.63;;;;;;;4.01;56.39;102423.66;5005846;28;20127;-70
2022/03/02 07:46:33;;;;;;;21.15;10.65;;;;;;;4.09;56.31;102419.50;5004662;28;20073;-70
2022/03/02 07:49:02;;;;;;;19.98;11.07;;;;;;;4.18;56.12;102413.59;5005457;28;20514;-70
2022/03/02 07:51:34;;;;;;;19.05;10.95;;;;;;;4.28;55.73;102414.66;5001338;28;20047;-70
2022/03/02 07:54:04;;;;;;;19.58;11.43;;;;;;;4.38;55.41;102407.91;5003649;28;20550;-70
2022/03/02 07:56:33;;;;;;;20.63;10.93;;;;;;;4.49;55.28;102409.88;5006028;28;20042;-70
2022/03/02 07:59:07;;;;;;;21.83;10.43;;;;;;;4.60;54.80;102404.91;5005429;28;20046;-69
2022/03/02 08:01:39;;;;;;;19.48;10.98;;;;;;;4.72;54.04;102396.41;5006138;28;20046;-70
2022/03/02 08:04:10;;;;;;;18.50;9.55;;;;;;;4.84;54.07;102405.31;5006245;28;20137;-69
2022/03/02 08:06:40;;;;;;;20.98;11.45;;;;;;;4.96;53.33;102400.34;5006567;28;20120;-70
2022/03/02 08:09:11;;;;;;;20.98;10.23;;;;;;;5.08;53.03;102391.81;5005992;28;20051;-69
2022/03/02 08:11:38;;;;;;;20.30;10.50;;;;;;;5.19;52.28;102392.88;5006477;28;20129;-70
2022/03/02 08:14:07;;;;;;;18.30;10.25;;;;;;;5.30;51.63;102395.66;5005947;28;20630;-71
2022/03/02 08:16:36;;;;;;;19.80;9.82;;;;;;;5.41;51.16;102398.47;5006092;28;20121;-71
2022/03/02 08:19:05;;;;;;;15.80;9.13;;;;;;;5.50;50.46;102397.72;5005573;28;20141;-71
2022/03/02 08:21:35;;;;;;;19.83;9.80;;;;;;;5.60;50.56;102395.28;5006189;28;20046;-71
2022/03/02 08:24:06;;;;;;;22.25;10.50;;;;;;;5.71;49.90;102387.59;5005730;28;20045;-69
2022/03/02 08:26:37;;;;;;;17.02;9.40;;;;;;;5.82;49.80;102386.84;5006113;28;20053;-70
2022/03/02 08:29:10;;;;;;;22.35;10.32;;;;;;;5.93;50.14;102392.25;5005677;28;20045;-71
2022/03/02 08:31:42;;;;;;;21.27;10.25;;;;;;;6.05;49.81;102382.88;5005479;28;20177;-70
2022/03/02 08:34:10;;;;;;;20.77;11.00;;;;;;;6.15;49.27;102391.72;5005129;28;20130;-69
2022/03/02 08:36:37;;;;;;;20.20;10.38;;;;;;;6.25;49.04;102394.47;5005710;28;20153;-69
2022/03/02 08:39:09;;;;;;;20.45;10.02;;;;;;;6.34;48.66;102392.81;5006218;28;20576;-71
2022/03/02 08:41:39;;;;;;;21.83;10.50;;;;;;;6.44;48.23;102396.44;5006427;28;20050;-70
2022/03/02 08:44:12;;;;;;;21.17;10.65;;;;;;;6.56;47.62;102394.84;5005816;28;20077;-70
2022/03/02 08:46:40;;;;;;;22.48;10.32;;;;;;;6.66;47.55;102386.22;5004894;28;20049;-71
2022/03/02 08:49:08;;;;;;;20.58;9.57;;;;;;;6.76;47.46;102389.78;4998224;28;20121;-70
2022/03/02 08:51:36;;;;;;;18.10;10.35;;;;;;;6.90;47.37;102385.56;5004314;28;20042;-71
2022/03/02 08:54:04;;;;;;;20.50;10.57;;;;;;;7.03;46.67;102388.28;5005006;28;20039;-69
2022/03/02 08:56:38;;;;;;;18.33;10.20;;;;;;;7.14;46.10;102376.16;5004230;28;20049;-69
2022/03/02 08:59:06;;;;;;;25.95;11.43;;;;;;;7.23;46.46;102365.75;5003686;28;20050;-69
2022/03/02 09:01:40;;;;;;;24.85;10.70;;;;;;;7.36;46.30;102364.13;5005482;28;20089;-70
2022/03/02 09:04:15;;;;;;;31.60;11.00;;;;;;;7.50;46.17;102365.94;5006528;28;20105;-68
2022/03/02 09:06:46;;;;;;;22.90;9.93;;;;;;;7.65;45.92;102373.94;5005057;28;20049;-69
2022/03/02 09:09:13;;;;;;;18.02;9.85;;;;;;;7.74;44.60;102368.75;5005587;28;20058;-69
2022/03/02 09:11:43;;;;;;;18.60;9.60;;;;;;;7.81;44.77;102366.13;5008460;28;20035;-70
2022/03/02 09:14:10;;;;;;;18.90;9.45;;;;;;;7.89;43.83;102372.31;5007854;28;20073;-71
2022/03/02 09:16:40;;;;;;;20.55;9.88;;;;;;;7.95;43.76;102367.09;5000784;28;20058;-69
2022/03/02 09:19:08;;;;;;;20.30;9.48;;;;;;;8.04;43.75;102363.63;5007928;28;20539;-69
2022/03/02 09:21:36;;;;;;;13.52;8.13;;;;;;;8.11;41.20;102370.69;5008031;28;20663;-69
2022/03/02 09:24:05;;;;;;;14.90;8.73;;;;;;;8.18;41.94;102376.84;5007844;28;20050;-70
2022/03/02 09:26:35;;;;;;;18.33;8.90;;;;;;;8.21;41.33;102364.59;5008548;28;20050;-69
2022/03/02 09:29:05;;;;;;;19.45;8.90;;;;;;;8.14;41.04;102365.41;5009212;28;20043;-68
2022/03/02 09:31:35;;;;;;;16.83;8.35;;;;;;;8.17;40.57;102359.31;5008492;28;20050;-70
2022/03/02 09:34:08;;;;;;;21.38;8.50;;;;;;;8.27;40.82;102365.47;5007444;28;20050;-70
2022/03/02 09:36:37;;;;;;;16.30;9.45;;;;;;;8.40;41.13;102356.75;5018268;28;20046;-68
2022/03/02 09:39:09;;;;;;;15.60;9.32;;;;;;;8.55;40.12;102355.97;5004548;28;20054;-67
2022/03/02 09:41:58;;;;;;;17.85;9.73;;;;;;;8.65;40.42;102346.31;5005871;28;20046;-68
2022/03/02 09:44:47;;;;;;;16.98;9.18;;;;;;;8.76;40.77;102343.72;5020531;28;20137;-69
2022/03/02 09:47:20;;;;;;;24.95;8.85;;;;;;;8.88;39.84;102346.38;5004854;28;20051;-69
2022/03/02 09:49:54;;;;;;;15.70;8.95;;;;;;;8.98;39.14;102347.25;5005870;28;20046;-69
2022/03/02 09:52:22;;;;;;;15.65;8.60;;;;;;;9.06;38.42;102337.59;5005387;28;20097;-68
2022/03/02 09:54:58;;;;;;;14.75;8.50;;;;;;;9.09;37.64;102342.88;5020088;28;20298;-70
2022/03/02 09:57:25;;;;;;;14.95;8.43;;;;;;;9.09;38.61;102334.97;5001220;28;20132;-70
2022/03/02 09:59:57;;;;;;;30.50;17.45;;;;;;;9.16;38.49;102341.13;5005343;28;20042;-68
2022/03/02 10:02:42;;;;;;;14.88;8.77;;;;;;;9.27;38.38;102335.84;4996400;28;20042;-69
2022/03/02 10:05:18;;;;;;;12.40;7.85;;;;;;;9.36;37.48;102332.31;5006537;28;20042;-67
2022/03/02 10:08:00;;;;;;;13.48;8.55;;;;;;;9.38;36.90;102338.47;5007963;28;20103;-72
2022/03/02 10:10:37;;;;;;;14.77;8.10;;;;;;;9.37;36.93;102334.94;5008099;28;20042;-70
2022/03/02 10:13:12;;;;;;;15.63;8.50;;;;;;;9.41;37.43;102328.81;4992994;28;20043;-66
2022/03/02 10:15:41;;;;;;;13.32;8.15;;;;;;;9.47;36.82;102327.94;5002307;28;20043;-68
2022/03/02 10:18:12;;;;;;;14.35;8.20;;;;;;;9.54;36.87;102329.66;5004443;28;20803;-67
2022/03/02 10:20:49;;;;;;;12.98;8.07;;;;;;;9.60;36.88;102316.50;5002762;28;20051;-70
2022/03/02 10:23:41;;;;;;;12.30;8.32;;;;;;;9.64;36.88;102317.38;5008477;28;20077;-69
2022/03/02 10:26:08;;;;;;;12.60;7.63;;;;;;;9.67;36.75;102327.88;5001707;28;20074;-68
2022/03/02 10:29:16;;;;;;;14.50;8.15;;;;;;;9.73;37.21;102325.22;4987756;28;20043;-70
2022/03/02 10:31:58;;;;;;;14.88;8.75;;;;;;;9.81;35.87;102326.94;5005277;28;20052;-69
2022/03/02 10:34:30;;;;;;;19.45;9.50;;;;;;;9.89;36.95;102333.06;5009736;28;20046;-69
2022/03/02 10:37:24;;;;;;;16.05;7.97;;;;;;;9.99;35.58;102326.03;5005593;28;20062;-69
2022/03/02 10:40:24;;;;;;;15.03;8.77;;;;;;;10.06;36.36;102330.38;5006413;28;20125;-70
2022/03/02 10:42:57;;;;;;;18.08;8.30;;;;;;;10.15;35.82;102326.81;4989248;28;20059;-69
2022/03/02 10:45:29;;;;;;;15.52;8.73;;;;;;;10.21;36.11;102325.03;4999455;28;20046;-71
2022/03/02 10:48:22;;;;;;;13.93;8.48;;;;;;;10.26;35.62;102315.34;5001467;28;20045;-69
2022/03/02 10:50:56;;;;;;;13.82;8.82;;;;;;;10.34;35.07;102322.31;4998224;28;20491;-70
2022/03/02 10:53:30;;;;;;;13.90;8.25;;;;;;;10.34;35.79;102317.94;4993244;28;20042;-70
2022/03/02 10:55:58;;;;;;;13.27;8.50;;;;;;;10.46;35.39;102321.44;4995562;28;20510;-73
2022/03/02 10:58:29;;;;;;;15.88;9.05;;;;;;;10.51;34.91;102324.91;4990633;28;20043;-72
2022/03/02 11:00:59;;;;;;;21.50;11.82;;;;;;;10.53;35.12;102318.72;4998588;28;20598;-72
2022/03/02 11:03:33;;;;;;;14.30;8.45;;;;;;;10.55;34.65;102324.88;5014011;28;20049;-74
2022/03/02 11:06:03;;;;;;;15.52;8.52;;;;;;;10.55;34.98;102324.88;5000004;28;20138;-70
2022/03/02 11:08:30;;;;;;;15.95;8.60;;;;;;;10.59;35.40;102311.66;4998804;28;20282;-70
2022/03/02 11:10:59;;;;;;;14.95;8.80;;;;;;;10.68;35.70;102317.72;4990772;28;20057;-72
2022/03/02 11:13:26;;;;;;;14.30;8.70;;;;;;;10.78;35.05;102313.28;5005933;28;20053;-73
2022/03/02 11:16:00;;;;;;;14.63;8.63;;;;;;;10.83;34.57;102303.59;4997406;28;20042;-69
2022/03/02 11:18:48;;;;;;;13.40;8.30;;;;;;;10.84;34.81;102307.94;5002220;28;20125;-70
2022/03/02 11:21:32;;;;;;;15.77;8.63;;;;;;;10.85;34.83;102306.19;4998100;28;20057;-69
2022/03/02 11:24:02;;;;;;;11.73;7.95;;;;;;;10.87;34.66;102300.00;5017448;28;20541;-70
2022/03/02 11:26:34;;;;;;;12.82;8.38;;;;;;;10.97;34.79;102287.63;5004567;28;20074;-70
2022/03/02 11:29:06;;;;;;;11.90;8.02;;;;;;;11.05;35.37;102284.91;5007384;28;20054;-70
2022/03/02 11:31:56;;;;;;;15.45;8.48;;;;;;;11.17;33.51;102290.06;5007061;28;20867;-69
2022/03/02 11:34:28;;;;;;;13.00;8.60;;;;;;;11.25;34.04;102284.72;5010276;28;20042;-70
2022/03/02 11:37:05;;;;;;;12.63;8.30;;;;;;;11.32;34.64;102288.19;5007199;28;20069;-70